Time;durP1;ratioP1;P1;durP2;ratioP2;P2;SDS_P1;SDS_P2;PMS_P1;PMS_P2;Temp;Humidity;BMP_temperature;BMP_pressure;BME280_temperature;BME280_humidity;BME280_pressure;Samples;Min_cycle;Max_cycle;Signal;HPM_P1;HPM_P2
2021/08/23 00:00:52;;;;;;;;;6.00;6.00;;;;;19.90;53.87;101999.69;4937824;28;45282;-93
2021/08/23 00:03:17;;;;;;;;;6.33;5.00;;;;;19.94;54.31;102008.31;4937498;28;45306;-92
2021/08/23 00:05:43;;;;;;;;;5.00;4.33;;;;;19.93;54.15;102010.09;4937983;28;45547;-93
2021/08/23 00:08:09;;;;;;;;;5.00;4.00;;;;;19.93;54.24;102003.97;4953700;28;47170;-94
2021/08/23 00:10:34;;;;;;;;;6.00;4.67;;;;;19.94;54.25;102005.69;4937633;28;45302;-93
2021/08/23 00:12:59;;;;;;;;;5.33;4.00;;;;;19.94;54.07;102005.69;4953912;28;45833;-93
2021/08/23 00:15:25;;;;;;;;;6.33;5.00;;;;;19.95;54.09;102015.31;4938907;28;44842;-92
2021/08/23 00:17:50;;;;;;;;;5.00;4.67;;;;;19.95;53.99;102010.03;4937601;28;47132;-92
2021/08/23 00:20:24;;;;;;;;;4.00;4.00;;;;;19.94;54.13;102000.41;4937654;28;45489;-92
2021/08/23 00:22:54;;;;;;;;;3.00;3.00;;;;;19.98;54.07;102009.88;4937609;28;45432;-92
2021/08/23 00:25:20;;;;;;;;;3.67;3.67;;;;;19.99;54.83;102008.91;4937945;28;45652;-94
2021/08/23 00:27:46;;;;;;;;;4.50;4.50;;;;;19.98;54.48;102009.88;4937934;28;45457;-93
2021/08/23 00:30:13;;;;;;;;;4.00;4.00;;;;;19.95;54.57;102005.56;4937172;28;45345;-93
2021/08/23 00:32:40;;;;;;;;;6.00;5.00;;;;;19.95;54.66;102000.28;4953735;28;45452;-92
2021/08/23 00:35:06;;;;;;;;;4.00;3.00;;;;;19.96;54.38;102003.78;4936672;28;45583;-92
2021/08/23 00:37:31;;;;;;;;;4.00;4.00;;;;;19.97;54.38;102009.03;4937138;28;48303;-93
2021/08/23 00:39:56;;;;;;;;;5.00;4.00;;;;;19.97;54.68;102011.69;4936985;28;45645;-93
2021/08/23 00:42:22;;;;;;;;;3.67;3.67;;;;;19.96;54.85;102004.69;4953284;28;45302;-92
2021/08/23 00:44:49;;;;;;;;;4.67;4.00;;;;;19.96;55.04;101995.88;4953779;28;45343;-92
2021/08/23 00:47:14;;;;;;;;;3.33;3.33;;;;;19.95;54.62;101994.19;4952858;28;47296;-92
2021/08/23 00:49:40;;;;;;;;;5.00;3.33;;;;;19.92;54.43;101989.91;4953270;28;45374;-93
2021/08/23 00:52:07;;;;;;;;;6.67;4.67;;;;;19.94;54.58;101992.47;4937173;28;45270;-92
2021/08/23 00:54:34;;;;;;;;;3.00;3.00;;;;;19.95;54.95;101992.38;4937356;28;44950;-92
2021/08/23 00:57:00;;;;;;;;;3.67;3.00;;;;;19.94;55.12;101993.31;4936655;28;47073;-93
2021/08/23 00:59:29;;;;;;;;;4.00;4.00;;;;;19.96;54.81;101988.84;4936668;28;45357;-92
2021/08/23 01:02:03;;;;;;;;;5.00;4.00;;;;;19.96;55.00;102001.16;4937039;28;45355;-92
2021/08/23 01:04:33;;;;;;;;;4.00;4.00;;;;;19.94;54.62;101995.13;4937244;28;45347;-92
2021/08/23 01:07:00;;;;;;;;;4.00;4.00;;;;;19.89;55.37;101985.66;4952709;28;47258;-92
2021/08/23 01:09:30;;;;;;;;;3.67;3.00;;;;;19.91;55.16;101988.22;4936893;28;45618;-92
2021/08/23 01:11:56;;;;;;;;;4.00;3.00;;;;;19.92;54.85;101986.41;4969530;28;45223;-93
2021/08/23 01:14:22;;;;;;;;;4.67;3.67;;;;;19.90;54.90;101986.50;4937477;28;44992;-93
2021/08/23 01:16:47;;;;;;;;;5.67;4.67;;;;;19.88;55.26;101983.09;4936759;28;47936;-92
2021/08/23 01:19:16;;;;;;;;;4.00;3.67;;;;;19.89;54.81;101985.66;4936647;28;44741;-93
2021/08/23 01:21:42;;;;;;;;;6.67;4.00;;;;;19.89;55.27;101988.28;4999979;28;45560;-93
2021/08/23 01:24:13;;;;;;;;;5.00;3.67;;;;;19.93;54.95;101988.09;4938145;28;45439;-92
2021/08/23 01:26:46;;;;;;;;;5.00;5.00;;;;;19.90;55.30;101989.13;4936580;28;46350;-93
2021/08/23 01:29:27;;;;;;;;;4.00;4.00;;;;;19.91;55.53;101988.22;4952860;28;45475;-92
2021/08/23 01:31:55;;;;;;;;;6.00;4.00;;;;;19.92;55.26;101994.34;4936908;28;45431;-93
2021/08/23 01:34:23;;;;;;;;;4.33;3.67;;;;;19.91;55.39;101990.84;4936843;28;45506;-93
2021/08/23 01:36:50;;;;;;;;;4.33;3.00;;;;;19.88;55.25;101993.66;4952393;28;47243;-93
2021/08/23 01:39:16;;;;;;;;;4.00;4.00;;;;;19.88;55.64;101998.94;4936509;28;45391;-92
2021/08/23 01:41:41;;;;;;;;;3.00;3.00;;;;;19.90;55.60;101994.41;4936991;28;45429;-93
2021/08/23 01:44:08;;;;;;;;;4.00;4.00;;;;;19.88;55.38;102002.44;4952452;28;45594;-93
2021/08/23 01:46:34;;;;;;;;;4.67;4.00;;;;;19.87;55.36;101991.97;4935515;28;47527;-93
2021/08/23 01:49:04;;;;;;;;;3.67;3.67;;;;;19.88;55.67;102001.59;4936535;28;45306;-94
2021/08/23 01:51:30;;;;;;;;;2.33;2.33;;;;;19.87;55.54;102003.34;4952687;28;45441;-93
2021/08/23 01:53:55;;;;;;;;;3.00;3.00;;;;;19.84;55.85;102007.97;4936883;28;45485;-94
2021/08/23 01:56:24;;;;;;;;;4.00;3.33;;;;;19.77;55.90;102007.47;4936598;28;47111;-93
2021/08/23 01:58:50;;;;;;;;;3.00;3.00;;;;;19.77;55.90;102007.47;4936656;28;45318;-93
2021/08/23 02:01:15;;;;;;;;;2.00;2.00;;;;;19.78;56.06;102009.16;4936324;28;45176;-93
2021/08/23 02:03:40;;;;;;;;;3.33;3.00;;;;;19.79;55.87;102005.59;4936289;28;45541;-92
2021/08/23 02:06:06;;;;;;;;;3.67;3.67;;;;;19.82;56.04;101992.22;4952201;28;47136;-93
2021/08/23 02:08:31;;;;;;;;;5.33;4.67;;;;;19.81;56.00;101993.13;4952356;28;45283;-93
2021/08/23 02:10:57;;;;;;;;;4.67;3.00;;;;;19.84;56.26;102006.19;4937382;28;45242;-92
2021/08/23 02:13:22;;;;;;;;;4.00;3.00;;;;;19.87;56.16;102002.53;4936797;28;45312;-93
2021/08/23 02:15:47;;;;;;;;;5.00;5.00;;;;;19.87;55.99;101997.25;4935949;28;47175;-93
2021/08/23 02:18:13;;;;;;;;;4.00;4.00;;;;;19.90;56.10;102003.19;4952526;28;45410;-93
2021/08/23 02:20:38;;;;;;;;;4.00;4.00;;;;;19.89;56.29;102000.63;4952791;28;45304;-93
2021/08/23 02:23:04;;;;;;;;;4.00;4.00;;;;;19.88;56.16;101994.53;4936567;28;44761;-94
2021/08/23 02:25:30;;;;;;;;;4.67;3.33;;;;;19.88;56.19;102002.44;4936151;28;48143;-92
2021/08/23 02:27:55;;;;;;;;;3.33;3.33;;;;;19.87;56.20;102003.34;4935792;28;45271;-92
2021/08/23 02:30:21;;;;;;;;;3.67;3.67;;;;;19.86;56.08;102006.09;4936192;28;45411;-92
2021/08/23 02:32:47;;;;;;;;;3.00;2.67;;;;;19.83;56.22;102001.84;4935838;28;45481;-92
2021/08/23 02:35:12;;;;;;;;;4.67;3.00;;;;;19.82;56.30;102000.16;4935964;28;47172;-93
2021/08/23 02:37:38;;;;;;;;;4.33;4.00;;;;;19.83;56.52;102009.78;4936860;28;45354;-92
2021/08/23 02:40:04;;;;;;;;;5.67;5.00;;;;;19.82;56.46;102012.50;4935858;28;45364;-93
2021/08/23 02:42:30;;;;;;;;;5.33;5.33;;;;;19.78;56.23;102003.88;4936216;28;45567;-92
2021/08/23 02:44:55;;;;;;;;;5.33;4.33;;;;;19.81;56.83;102005.50;4951595;28;46993;-93
2021/08/23 02:47:20;;;;;;;;;5.00;3.00;;;;;19.79;56.41;102000.31;4951686;28;45386;-92
2021/08/23 02:49:46;;;;;;;;;5.67;5.67;;;;;19.79;56.10;101988.88;4937048;28;45715;-93
2021/08/23 02:52:11;;;;;;;;;6.00;4.67;;;;;19.79;56.14;101989.75;4936180;28;45224;-93
2021/08/23 02:54:37;;;;;;;;;3.00;3.00;;;;;19.80;56.54;101986.16;4935489;28;47416;-92
2021/08/23 02:57:02;;;;;;;;;7.00;4.33;;;;;19.82;56.73;101994.88;4937164;28;45381;-93
2021/08/23 02:59:28;;;;;;;;;7.00;4.00;;;;;19.82;56.46;102001.94;4939793;28;45306;-93
2021/08/23 03:01:53;;;;;;;;;4.33;4.00;;;;;19.82;56.61;101994.00;4954928;28;45357;-94
2021/08/23 03:04:19;;;;;;;;;4.00;3.67;;;;;19.80;56.65;101995.88;4939436;28;45303;-93
2021/08/23 03:06:44;;;;;;;;;5.33;4.00;;;;;19.80;56.58;101996.72;4954431;28;45333;-93
2021/08/23 03:09:09;;;;;;;;;6.00;3.67;;;;;19.79;56.62;101994.16;4938860;28;45908;-93
2021/08/23 03:11:35;;;;;;;;;3.00;3.00;;;;;19.76;56.98;101992.53;4938574;28;44857;-93
2021/08/23 03:14:00;;;;;;;;;4.00;4.00;;;;;19.77;56.52;101991.63;4938203;28;47466;-93
2021/08/23 03:16:26;;;;;;;;;6.00;3.67;;;;;19.79;56.95;101999.44;4939452;28;45419;-92
2021/08/23 03:18:51;;;;;;;;;5.33;5.33;;;;;19.79;56.46;102000.31;4938435;28;45872;-93
2021/08/23 03:21:16;;;;;;;;;4.33;3.67;;;;;19.79;56.71;101994.16;4939799;28;44754;-93
2021/08/23 03:23:42;;;;;;;;;6.00;4.00;;;;;19.77;56.75;101992.47;4954495;28;46906;-94
2021/08/23 03:26:07;;;;;;;;;5.00;4.00;;;;;19.78;56.56;101990.69;4952388;28;45602;-93
2021/08/23 03:28:34;;;;;;;;;6.33;4.33;;;;;19.76;56.50;101992.53;4938295;28;45480;-94
2021/08/23 03:31:00;;;;;;;;;7.00;3.00;;;;;19.79;56.86;102002.94;4938507;28;45391;-93
2021/08/23 03:33:25;;;;;;;;;4.00;4.00;;;;;19.79;57.18;102007.38;4938114;28;47218;-93
2021/08/23 03:35:50;;;;;;;;;3.67;3.67;;;;;19.80;56.73;101999.34;4938322;28;45861;-93
2021/08/23 03:38:16;;;;;;;;;6.00;5.33;;;;;19.77;57.14;101997.75;4943809;28;45411;-93
2021/08/23 03:40:41;;;;;;;;;5.67;5.67;;;;;19.77;57.62;101997.75;4945317;28;45350;-93
2021/08/23 03:43:07;;;;;;;;;6.67;5.00;;;;;19.77;57.58;102000.38;4937992;28;47185;-93
2021/08/23 03:45:33;;;;;;;;;5.67;5.00;;;;;19.75;57.94;101998.75;4937951;28;45275;-94
2021/08/23 03:47:58;;;;;;;;;6.67;5.00;;;;;19.70;58.08;101999.03;4937963;28;44783;-93
2021/08/23 03:50:24;;;;;;;;;7.00;5.00;;;;;19.65;58.11;102001.06;4954152;28;45467;-93
2021/08/23 03:52:49;;;;;;;;;4.00;4.00;;;;;19.67;58.78;101995.69;4937698;28;48558;-94
2021/08/23 03:55:15;;;;;;;;;5.33;4.67;;;;;19.65;58.81;102000.19;4938214;28;45416;-94
2021/08/23 03:57:40;;;;;;;;;6.33;4.67;;;;;19.61;58.68;101992.47;4937904;28;45310;-93
2021/08/23 04:00:09;;;;;;;;;5.67;5.00;;;;;19.61;58.76;101994.22;4938183;28;45362;-94
2021/08/23 04:02:35;;;;;;;;;7.67;4.00;;;;;19.58;58.77;101994.41;4937785;28;47456;-93
2021/08/23 04:05:01;;;;;;;;;5.00;4.00;;;;;19.55;59.24;101990.16;4937714;28;45625;-92
2021/08/23 04:07:26;;;;;;;;;6.00;6.00;;;;;19.58;59.07;101994.41;4954077;28;45302;-94
2021/08/23 04:09:54;;;;;;;;;4.33;4.33;;;;;19.57;59.22;101990.91;4937398;28;44728;-93
2021/08/23 04:12:20;;;;;;;;;5.00;4.00;;;;;19.52;59.33;101989.47;4937738;28;47471;-93
2021/08/23 04:14:46;;;;;;;;;5.67;5.00;;;;;19.49;59.86;101990.50;4953803;28;45430;-93
2021/08/23 04:17:11;;;;;;;;;7.00;6.67;;;;;19.50;59.45;101994.84;4953848;28;45455;-93
2021/08/23 04:19:36;;;;;;;;;5.00;4.00;;;;;19.47;59.45;101998.50;4937905;28;45404;-94
2021/08/23 04:22:02;;;;;;;;;4.67;4.33;;;;;19.46;59.63;101999.44;4953710;28;47830;-94
2021/08/23 04:24:28;;;;;;;;;6.00;4.33;;;;;19.46;59.80;101996.78;4953894;28;44802;-93
2021/08/23 04:26:53;;;;;;;;;8.00;7.00;;;;;19.44;59.95;101995.16;4937614;28;45340;-93
2021/08/23 04:29:19;;;;;;;;;6.25;6.00;;;;;19.41;59.91;101998.81;4938720;28;45380;-93
2021/08/23 04:31:45;;;;;;;;;6.00;5.00;;;;;19.40;60.11;102001.53;4936787;28;47074;-94
2021/08/23 04:34:10;;;;;;;;;8.67;5.00;;;;;19.38;60.27;101998.13;4937277;28;45632;-93
2021/08/23 04:36:37;;;;;;;;;8.67;6.00;;;;;19.36;60.19;102006.97;4938743;28;44743;-93
2021/08/23 04:39:04;;;;;;;;;3.00;3.00;;;;;19.31;60.09;101995.81;4937407;28;44842;-94
2021/08/23 04:41:38;;;;;;;;;7.67;7.33;;;;;19.32;60.42;102004.59;4936993;28;47322;-93
2021/08/23 04:44:05;;;;;;;;;7.33;5.00;;;;;19.33;60.56;102011.56;4969818;28;45996;-93
2021/08/23 04:46:30;;;;;;;;;6.00;4.00;;;;;19.32;60.14;102001.94;4937271;28;45461;-93
2021/08/23 04:48:56;;;;;;;;;6.00;5.00;;;;;19.32;60.21;102008.09;4937566;28;45392;-93
2021/08/23 04:51:21;;;;;;;;;5.33;5.00;;;;;19.32;60.56;102009.88;4937110;28;48218;-93
2021/08/23 04:53:46;;;;;;;;;5.00;5.00;;;;;19.27;60.44;102012.75;4937034;28;45684;-93
2021/08/23 04:56:12;;;;;;;;;6.33;4.67;;;;;19.26;60.53;102005.78;4936917;28;45394;-93
2021/08/23 04:58:40;;;;;;;;;6.00;5.00;;;;;19.30;60.42;102012.56;4937505;28;45347;-93
2021/08/23 05:01:06;;;;;;;;;5.33;5.33;;;;;19.29;60.37;102015.28;4953026;28;47596;-93
2021/08/23 05:03:31;;;;;;;;;7.33;6.00;;;;;19.28;60.72;102016.22;4936820;28;45298;-92
2021/08/23 05:05:56;;;;;;;;;7.00;6.67;;;;;19.28;60.77;102016.22;4953435;28;45199;-93
2021/08/23 05:08:22;;;;;;;;;7.67;7.67;;;;;19.28;60.43;102021.50;4937444;28;45321;-93
2021/08/23 05:10:48;;;;;;;;;7.67;7.00;;;;;19.27;60.55;102023.31;4937713;28;45848;-93
2021/08/23 05:13:13;;;;;;;;;7.00;5.33;;;;;19.26;60.89;102026.03;4936804;28;45390;-93
2021/08/23 05:15:39;;;;;;;;;6.00;6.00;;;;;19.24;61.00;102026.09;4936810;28;45325;-94
2021/08/23 05:18:04;;;;;;;;;8.00;7.00;;;;;19.21;60.52;102024.47;4938481;28;45678;-93
2021/08/23 05:20:30;;;;;;;;;6.00;6.00;;;;;19.22;60.49;102033.25;4936538;28;47136;-93
2021/08/23 05:22:55;;;;;;;;;6.00;6.00;;;;;19.20;60.84;102029.81;4936691;28;45456;-93
2021/08/23 05:25:21;;;;;;;;;9.67;7.00;;;;;19.20;60.11;102035.97;4937059;28;45421;-93
2021/08/23 05:27:46;;;;;;;;;7.00;6.67;;;;;19.19;60.58;102039.53;4936221;28;45561;-92
2021/08/23 05:30:12;;;;;;;;;7.33;7.33;;;;;19.17;60.74;102032.63;4943777;28;47083;-93
2021/08/23 05:32:38;;;;;;;;;8.33;8.33;;;;;19.16;60.54;102034.41;4936642;28;45359;-92
2021/08/23 05:35:04;;;;;;;;;11.00;10.00;;;;;19.14;60.86;102043.34;4952640;28;45488;-92
2021/08/23 05:37:29;;;;;;;;;10.00;8.00;;;;;19.09;60.57;102035.66;4953080;28;45422;-92
2021/08/23 05:39:55;;;;;;;;;10.33;8.67;;;;;19.09;60.99;102043.59;4952634;28;46943;-93
2021/08/23 05:42:20;;;;;;;;;8.33;7.67;;;;;19.05;61.07;102047.31;4936284;28;45367;-94
2021/08/23 05:44:45;;;;;;;;;8.33;8.33;;;;;19.02;60.68;102039.53;4936749;28;45381;-93
2021/08/23 05:47:11;;;;;;;;;12.00;9.33;;;;;19.03;60.94;102055.28;4936904;28;46218;-93
2021/08/23 05:49:36;;;;;;;;;9.25;8.00;;;;;19.00;60.86;102044.88;4935615;28;47145;-92
2021/08/23 05:52:02;;;;;;;;;8.00;7.75;;;;;18.96;61.16;102046.81;4936449;28;45271;-93
2021/08/23 05:54:28;;;;;;;;;10.50;8.25;;;;;18.99;61.26;102048.44;4936507;28;45339;-93
2021/08/23 05:56:56;;;;;;;;;8.50;7.75;;;;;18.93;61.18;102044.31;4936731;28;44885;-93
2021/08/23 05:59:22;;;;;;;;;11.33;9.00;;;;;18.94;60.75;102051.31;4952681;28;48011;-93
2021/08/23 06:01:54;;;;;;;;;10.00;10.00;;;;;18.92;60.55;102057.59;4952544;28;45440;-94
2021/08/23 06:04:23;;;;;;;;;11.25;11.25;;;;;18.90;60.59;102049.78;4936391;28;45306;-93
2021/08/23 06:06:49;;;;;;;;;13.25;10.75;;;;;18.91;61.12;102059.38;4936588;28;45287;-93
2021/08/23 06:09:16;;;;;;;;;14.50;11.00;;;;;18.91;61.50;102066.44;4935912;28;47458;-92
2021/08/23 06:11:41;;;;;;;;;10.75;9.25;;;;;18.91;61.45;102074.34;4937222;28;45235;-93
2021/08/23 06:14:07;;;;;;;;;16.25;12.50;;;;;18.90;61.21;102068.25;4936321;28;44758;-92
2021/08/23 06:16:32;;;;;;;;;13.75;12.00;;;;;18.89;61.44;102069.13;4936345;28;45203;-92
2021/08/23 06:18:58;;;;;;;;;14.00;13.25;;;;;18.88;61.71;102074.53;4936031;28;47412;-93
2021/08/23 06:21:23;;;;;;;;;14.25;11.75;;;;;18.89;61.50;102074.41;4952155;28;45573;-93
2021/08/23 06:23:48;;;;;;;;;12.00;11.00;;;;;18.91;61.35;102075.22;4936258;28;45342;-93
2021/08/23 06:26:14;;;;;;;;;15.75;12.00;;;;;18.95;61.61;102084.69;4935996;28;45391;-94
2021/08/23 06:28:39;;;;;;;;;14.25;12.75;;;;;18.93;61.45;102072.50;4951247;28;47021;-93
2021/08/23 06:31:05;;;;;;;;;12.25;12.00;;;;;18.96;61.49;102081.13;4934493;28;45397;-93
2021/08/23 06:33:30;;;;;;;;;14.00;11.25;;;;;19.00;61.51;102075.66;4937201;28;45246;-92
2021/08/23 06:35:56;;;;;;;;;12.75;11.00;;;;;19.03;61.36;102078.16;4936238;28;45338;-93
2021/08/23 06:38:21;;;;;;;;;14.50;13.00;;;;;19.04;61.51;102069.34;4935514;28;47281;-92
2021/08/23 06:40:46;;;;;;;;;12.75;11.50;;;;;19.08;61.43;102084.94;4935435;28;45556;-92
2021/08/23 06:43:12;;;;;;;;;13.00;13.00;;;;;19.11;61.55;102075.16;4951734;28;45377;-92
2021/08/23 06:45:37;;;;;;;;;16.00;11.50;;;;;19.15;61.41;102074.06;4935488;28;45327;-93
2021/08/23 06:48:03;;;;;;;;;14.25;11.75;;;;;19.19;61.18;102078.25;4951984;28;47311;-95
2021/08/23 06:50:28;;;;;;;;;13.75;13.50;;;;;19.21;61.36;102079.88;4936472;28;44886;-92
2021/08/23 06:52:54;;;;;;;;;15.00;14.00;;;;;19.25;61.47;102077.94;4935380;28;45496;-92
2021/08/23 06:55:19;;;;;;;;;17.75;15.25;;;;;19.28;61.42;102085.72;4951858;28;45282;-93
2021/08/23 06:57:44;;;;;;;;;15.00;13.50;;;;;19.31;61.11;102080.25;4951108;28;47134;-92
2021/08/23 07:00:10;;;;;;;;;16.33;13.33;;;;;19.32;61.21;102074.06;4921030;28;45353;-92
2021/08/23 07:02:36;;;;;;;;;14.25;13.75;;;;;19.35;60.56;102075.69;4947803;28;45326;-93
2021/08/23 07:05:05;;;;;;;;;7.25;7.25;;;;;19.39;60.68;102079.84;4924563;28;45589;-94
2021/08/23 07:07:32;;;;;;;;;9.67;9.00;;;;;19.43;60.62;102072.63;4917002;28;48802;-93
2021/08/23 07:09:58;;;;;;;;;13.33;12.00;;;;;19.42;60.30;102065.66;4932237;28;45532;-92
2021/08/23 07:12:23;;;;;;;;;16.00;10.00;;;;;19.44;60.07;102072.56;4935579;28;45214;-92
2021/08/23 07:14:48;;;;;;;;;8.67;8.67;;;;;19.52;60.29;102079.22;4949507;28;45476;-92
2021/08/23 07:17:14;;;;;;;;;11.00;10.00;;;;;19.54;60.17;102072.94;4937155;28;47068;-93
2021/08/23 07:19:39;;;;;;;;;10.50;9.25;;;;;19.60;60.20;102074.38;4937132;28;45425;-91
2021/08/23 07:22:05;;;;;;;;;11.00;10.75;;;;;19.63;60.17;102076.88;4950401;28;45441;-92
2021/08/23 07:24:30;;;;;;;;;9.50;9.50;;;;;19.62;60.00;102078.66;4950960;28;45345;-92
2021/08/23 07:26:56;;;;;;;;;9.50;9.50;;;;;19.70;60.18;102082.66;4950276;28;46824;-92
2021/08/23 07:29:22;;;;;;;;;11.67;10.67;;;;;19.71;59.90;102082.59;4943888;28;45698;-92
2021/08/23 07:31:48;;;;;;;;;10.00;9.00;;;;;19.77;60.05;102087.53;4935642;28;45500;-93
2021/08/23 07:34:13;;;;;;;;;11.00;10.67;;;;;19.81;59.51;102085.56;4934410;28;45425;-92
2021/08/23 07:36:39;;;;;;;;;9.50;9.50;;;;;19.84;60.02;102081.91;4950501;28;47356;-92
2021/08/23 07:39:04;;;;;;;;;8.33;8.33;;;;;19.89;59.93;102082.53;4934563;28;46083;-92
2021/08/23 07:41:30;;;;;;;;;8.00;7.67;;;;;19.91;59.44;102085.94;4938539;28;45404;-92
2021/08/23 07:43:55;;;;;;;;;8.33;8.00;;;;;19.97;59.27;102085.66;4953303;28;45458;-92
2021/08/23 07:46:21;;;;;;;;;10.00;8.33;;;;;19.96;59.63;102075.13;4953384;28;47176;-92
2021/08/23 07:48:47;;;;;;;;;9.00;8.33;;;;;20.02;58.98;102080.09;5017804;28;45352;-93
2021/08/23 07:51:12;;;;;;;;;7.67;7.67;;;;;20.05;58.73;102077.31;4954109;28;45404;-92
2021/08/23 07:53:39;;;;;;;;;6.33;6.33;;;;;20.08;58.50;102078.94;4937841;28;45587;-92
2021/08/23 07:56:05;;;;;;;;;9.50;9.50;;;;;20.15;58.70;102089.03;4950210;28;48103;-92
2021/08/23 07:58:31;;;;;;;;;7.50;7.25;;;;;20.18;58.79;102084.53;4918481;28;45255;-93
2021/08/23 08:00:56;;;;;;;;;7.00;7.00;;;;;20.25;58.42;102089.41;4918518;28;45401;-92
2021/08/23 08:03:21;;;;;;;;;9.00;9.00;;;;;20.28;58.50;102078.66;4925273;28;45433;-91
2021/08/23 08:05:47;;;;;;;;;8.25;6.50;;;;;20.33;58.21;102069.63;4953546;28;46647;-93
2021/08/23 08:08:14;;;;;;;;;6.33;6.33;;;;;20.40;57.80;102073.59;4954014;28;45898;-93
2021/08/23 08:10:40;;;;;;;;;9.33;7.00;;;;;20.43;57.65;102076.09;4952613;28;45402;-92
2021/08/23 08:13:07;;;;;;;;;6.33;6.33;;;;;20.48;57.64;102078.47;4952381;28;45367;-92
2021/08/23 08:15:33;;;;;;;;;9.00;8.00;;;;;20.51;57.74;102076.47;4952718;28;47984;-92
2021/08/23 08:17:58;;;;;;;;;9.00;9.00;;;;;20.55;57.80;102085.97;4936491;28;46112;-91
2021/08/23 08:20:24;;;;;;;;;12.67;8.33;;;;;20.61;57.49;102071.53;4952446;28;45665;-92
2021/08/23 08:22:49;;;;;;;;;9.67;8.00;;;;;20.66;57.38;102088.00;4950872;28;45529;-92
2021/08/23 08:25:14;;;;;;;;;9.33;9.00;;;;;20.69;57.42;102087.81;4919367;28;46879;-92
2021/08/23 08:27:40;;;;;;;;;8.67;8.33;;;;;20.73;56.97;102082.34;4933275;28;46222;-92
2021/08/23 08:30:08;;;;;;;;;9.00;9.00;;;;;20.78;57.17;102085.59;4962406;28;45528;-91
2021/08/23 08:32:34;;;;;;;;;11.00;9.33;;;;;20.83;56.82;102083.53;4950238;28;45466;-92
2021/08/23 08:34:59;;;;;;;;;8.67;8.00;;;;;20.89;56.86;102080.53;4937496;28;45483;-92
2021/08/23 08:37:25;;;;;;;;;9.67;9.67;;;;;20.94;56.96;102074.97;4936069;28;45420;-91
2021/08/23 08:39:51;;;;;;;;;9.33;7.33;;;;;21.03;57.08;102076.22;4940899;28;45575;-90
2021/08/23 08:42:17;;;;;;;;;10.33;10.00;;;;;21.10;56.35;102072.25;4936538;28;44784;-92
2021/08/23 08:44:44;;;;;;;;;9.33;7.67;;;;;21.17;56.50;102070.09;4973681;28;48052;-92
2021/08/23 08:47:15;;;;;;;;;12.67;10.67;;;;;21.20;55.97;102070.75;4949800;28;45355;-93
2021/08/23 08:49:41;;;;;;;;;9.00;8.67;;;;;21.27;56.47;102080.97;5006826;28;45602;-92
2021/08/23 08:52:08;;;;;;;;;7.33;7.33;;;;;21.33;56.13;102086.75;5034087;28;45358;-93
2021/08/23 08:54:34;;;;;;;;;9.00;9.00;;;;;21.39;56.03;102082.03;4961018;28;47194;-92
2021/08/23 08:57:03;;;;;;;;;8.33;8.33;;;;;21.42;55.54;102080.06;4952034;28;45270;-92
2021/08/23 08:59:30;;;;;;;;;8.33;7.33;;;;;21.47;55.50;102082.41;4937400;28;45494;-91
2021/08/23 09:01:56;;;;;;;;;10.33;9.33;;;;;21.53;56.05;102089.13;5014916;28;45372;-92
2021/08/23 09:04:31;;;;;;;;;9.00;8.00;;;;;21.57;55.70;102086.19;4962916;28;47177;-92
2021/08/23 09:06:58;;;;;;;;;9.67;8.00;;;;;21.62;55.25;102085.94;4931574;28;45418;-93
2021/08/23 09:09:25;;;;;;;;;10.33;7.33;;;;;21.67;55.81;102086.50;4951659;28;45526;-92
2021/08/23 09:11:59;;;;;;;;;10.33;9.33;;;;;21.69;55.38;102096.97;4952337;28;45576;-93
2021/08/23 09:14:26;;;;;;;;;11.33;9.33;;;;;21.70;55.79;102090.75;4938022;28;45773;-91
2021/08/23 09:16:52;;;;;;;;;7.00;6.33;;;;;21.66;55.23;102092.72;4948830;28;45682;-92
2021/08/23 09:19:25;;;;;;;;;9.00;8.00;;;;;21.63;55.27;102099.06;4952157;28;45432;-92
2021/08/23 09:21:58;;;;;;;;;12.00;9.00;;;;;21.60;55.69;102098.41;4951680;28;45377;-91
2021/08/23 09:24:23;;;;;;;;;10.67;8.33;;;;;21.60;55.71;102099.28;4935728;28;48581;-92
2021/08/23 09:26:49;;;;;;;;;10.33;8.67;;;;;21.62;55.73;102096.53;4952534;28;45532;-92
2021/08/23 09:29:15;;;;;;;;;10.00;8.67;;;;;21.61;55.80;102090.38;4936115;28;45311;-92
2021/08/23 09:31:41;;;;;;;;;8.00;7.00;;;;;21.63;55.55;102096.41;4954664;28;45389;-92
2021/08/23 09:34:09;;;;;;;;;8.67;7.33;;;;;21.65;55.25;102095.50;4948778;28;47030;-92
2021/08/23 09:36:35;;;;;;;;;10.33;8.67;;;;;21.69;54.90;102100.50;4931405;28;45123;-92
2021/08/23 09:39:15;;;;;;;;;6.67;4.67;;;;;21.70;55.38;102098.72;4951727;28;45456;-91
2021/08/23 09:41:41;;;;;;;;;6.33;6.00;;;;;21.75;55.01;102099.28;4936029;28;45571;-92
2021/08/23 09:44:12;;;;;;;;;8.33;7.67;;;;;21.82;55.00;102105.06;4935958;28;48342;-92
2021/08/23 09:46:39;;;;;;;;;7.67;6.33;;;;;21.85;54.55;102099.56;4949699;28;44917;-89
2021/08/23 09:53:36;;;;;;;;;;;;;;;;;;;;;
2021/08/23 09:56:39;;;;;;;;;;;;;;;;;;;;;
2021/08/23 10:10:41;;;;;;;;;;;;;;;;;;;;;
2021/08/23 10:29:15;;;;;;;;;;;;;;;;;;;;;
2021/08/23 14:02:15;;;;;;;;;10.67;10.67;;;;;22.89;55.32;102031.03;6229882;22;45774;-93
2021/08/23 15:51:39;;;;;;;;;15.00;15.00;;;;;22.00;55.59;102039.44;6216940;22;45973;-93
2021/08/23 15:57:57;;;;;;;;;16.50;15.00;;;;;22.14;55.00;102022.66;6118386;22;45905;-92
2021/08/23 16:49:20;;;;;;;;;9.75;8.25;;;;;22.38;54.05;102025.50;6213856;22;1515063;-92
2021/08/23 21:30:37;;;;;;;;;;;;;;;;;;;;;
2021/08/23 21:37:13;;;;;;;;;;;;;;;;;;;;;
2021/08/23 21:40:25;;;;;;;;;;;;;;;;;;;;;
2021/08/23 21:43:47;;;;;;;;;7.75;7.75;;;;;19.80;57.70;102133.22;6009711;23;45275;-92
2021/08/23 21:49:43;;;;;;;;;;;;;;;;;;;;;
2021/08/23 21:52:22;;;;;;;;;;;;;;;;;;;;;
2021/08/23 21:55:39;;;;;;;;;10.75;8.25;;;;;19.73;57.96;102144.09;5892727;24;65052;-90
2021/08/23 22:12:15;;;;;;;;;;;;;;;;;;;;;
2021/08/23 22:29:36;;;;;;;;;7.00;6.00;;;;;19.56;57.83;102160.81;4837530;29;45575;-92
2021/08/23 22:32:59;;;;;;;;;8.67;6.33;;;;;19.57;57.57;102154.59;4823140;29;46901;-92
2021/08/23 22:35:57;;;;;;;;;;;;;;;;;;;;;
2021/08/23 22:38:58;;;;;;;;;;;;;;;;;;;;;
2021/08/23 22:58:55;;;;;;;;;;;;;;;;;;;;;
2021/08/23 23:05:15;;;;;;;;;8.50;8.50;;;;;19.32;57.95;102145.31;4765789;29;45272;-92
2021/08/23 23:08:11;;;;;;;;;6.00;6.00;;;;;19.29;58.07;102147.22;4820092;29;45399;-91
2021/08/23 23:48:23;;;;;;;;;11.33;8.67;;;;;18.84;58.60;102126.53;4739569;29;45563;-92
2021/08/23 23:54:45;;;;;;;;;;;;;;;;;;;;;
2021/08/23 23:57:18;;;;;;;;;6.00;6.00;;;;;18.78;58.89;102130.34;4826186;29;68062;-91
